createdAt,value
2018-06-30T00:00:19.301Z,19.86
2018-06-30T00:02:50.553Z,19.94
2018-06-30T00:05:21.407Z,20.01
2018-06-30T00:07:52.180Z,20.08
2018-06-30T00:10:28.361Z,20.08
2018-06-30T00:13:01.608Z,19.97
2018-06-30T00:15:32.634Z,20.04
2018-06-30T00:18:03.678Z,20.07
2018-06-30T00:20:35.157Z,20.11
2018-06-30T00:23:06.122Z,20.04
2018-06-30T00:25:36.939Z,20.11
2018-06-30T00:28:07.656Z,20.11
2018-06-30T00:30:38.881Z,20.00
2018-06-30T00:33:10.724Z,20.00
2018-06-30T00:35:41.363Z,20.12
2018-06-30T00:38:12.315Z,20.11
2018-06-30T00:40:43.372Z,19.98
2018-06-30T00:43:14.130Z,20.04
2018-06-30T00:45:44.395Z,20.00
2018-06-30T00:48:15.205Z,19.93
2018-06-30T00:50:45.984Z,20.01
2018-06-30T00:53:16.997Z,20.04
2018-06-30T00:55:46.948Z,20.16
2018-06-30T00:58:17.912Z,20.01
2018-06-30T01:00:48.634Z,20.01
2018-06-30T01:03:19.664Z,19.95
2018-06-30T01:05:50.267Z,19.82
2018-06-30T01:08:22.133Z,19.98
2018-06-30T01:10:53.024Z,19.95
2018-06-30T01:13:23.585Z,19.95
2018-06-30T01:15:54.512Z,19.96
2018-06-30T01:18:25.427Z,20.10
2018-06-30T01:20:57.652Z,20.04
2018-06-30T01:23:28.328Z,20.08
2018-06-30T01:25:58.786Z,19.97
2018-06-30T01:28:29.640Z,20.06
2018-06-30T01:31:00.976Z,20.01
2018-06-30T01:33:31.999Z,19.95
2018-06-30T01:36:02.166Z,19.91
2018-06-30T01:38:32.696Z,19.92
2018-06-30T01:41:03.093Z,19.96
2018-06-30T01:43:34.581Z,19.92
2018-06-30T01:46:05.494Z,19.95
2018-06-30T01:48:36.571Z,19.96
2018-06-30T01:51:07.434Z,20.07
2018-06-30T01:53:38.400Z,20.13
2018-06-30T01:56:09.067Z,20.12
2018-06-30T01:58:39.830Z,20.29
2018-06-30T02:01:10.424Z,20.20
2018-06-30T02:03:41.023Z,20.17
2018-06-30T02:06:12.003Z,20.19
2018-06-30T02:08:42.109Z,20.28
2018-06-30T02:11:12.696Z,20.27
2018-06-30T02:13:43.070Z,20.27
2018-06-30T02:16:14.287Z,20.24
2018-06-30T02:18:45.070Z,20.28
2018-06-30T02:21:15.817Z,20.21
2018-06-30T02:23:46.240Z,20.14
2018-06-30T02:26:17.166Z,20.05
2018-06-30T02:28:47.732Z,20.02
2018-06-30T02:31:19.168Z,20.02
2018-06-30T02:34:01.845Z,19.94
2018-06-30T02:36:44.375Z,19.94
2018-06-30T02:39:15.110Z,19.96
2018-06-30T02:41:45.700Z,19.94
2018-06-30T02:44:16.151Z,19.80
2018-06-30T02:46:46.900Z,19.73
2018-06-30T02:49:17.780Z,19.75
2018-06-30T02:51:48.488Z,19.75
2018-06-30T02:54:19.415Z,19.72
2018-06-30T02:56:50.164Z,19.65
2018-06-30T02:59:21.050Z,19.66
2018-06-30T03:01:51.437Z,19.70
2018-06-30T03:04:22.775Z,19.73
2018-06-30T03:06:53.431Z,19.66
2018-06-30T03:09:24.011Z,19.60
2018-06-30T03:11:54.660Z,19.56
2018-06-30T03:14:25.210Z,19.61
2018-06-30T03:16:55.965Z,19.63
2018-06-30T03:19:26.325Z,19.73
2018-06-30T03:21:56.879Z,19.69
2018-06-30T03:24:27.776Z,19.67
2018-06-30T03:26:58.107Z,19.77
2018-06-30T03:29:28.668Z,19.82
2018-06-30T03:31:59.527Z,19.87
2018-06-30T03:34:30.241Z,19.98
2018-06-30T03:37:00.631Z,19.94
2018-06-30T03:39:31.091Z,19.81
2018-06-30T03:42:01.362Z,19.74
2018-06-30T03:44:32.429Z,19.69
2018-06-30T03:47:02.810Z,19.67
2018-06-30T03:49:33.221Z,19.59
2018-06-30T03:52:03.843Z,19.60
2018-06-30T03:54:34.188Z,19.55
2018-06-30T03:57:04.797Z,19.53
2018-06-30T03:59:35.475Z,19.51
2018-06-30T04:02:06.064Z,19.51
2018-06-30T04:04:36.658Z,19.57
2018-06-30T04:07:07.436Z,19.55
2018-06-30T04:09:38.076Z,19.57
2018-06-30T04:12:08.710Z,19.65
2018-06-30T04:14:39.484Z,19.69
2018-06-30T04:17:10.040Z,19.78
2018-06-30T04:19:40.755Z,19.79
2018-06-30T04:22:11.371Z,19.79
2018-06-30T04:24:41.996Z,19.80
2018-06-30T04:27:12.635Z,19.77
2018-06-30T04:29:43.082Z,19.81
2018-06-30T04:32:14.436Z,19.84
2018-06-30T04:34:45.070Z,19.83
2018-06-30T04:37:15.863Z,19.85
2018-06-30T04:39:46.435Z,19.76
2018-06-30T04:42:16.508Z,19.90
2018-06-30T04:44:47.237Z,19.92
2018-06-30T04:47:18.882Z,19.91
2018-06-30T04:49:49.751Z,19.83
2018-06-30T04:52:21.104Z,19.94
2018-06-30T04:54:52.268Z,20.01
2018-06-30T04:57:23.219Z,19.91
2018-06-30T04:59:54.058Z,20.14
2018-06-30T05:02:24.571Z,20.18
2018-06-30T05:04:55.827Z,20.15
2018-06-30T05:07:26.386Z,20.23
2018-06-30T05:09:57.384Z,20.59
2018-06-30T05:12:27.173Z,20.81
2018-06-30T05:14:57.280Z,21.03
2018-06-30T05:17:27.666Z,21.24
2018-06-30T05:19:57.577Z,21.35
2018-06-30T05:22:27.642Z,21.41
2018-06-30T05:24:57.656Z,21.62
2018-06-30T05:27:27.647Z,21.76
2018-06-30T05:29:57.496Z,21.91
2018-06-30T05:32:27.244Z,21.89
2018-06-30T05:34:57.250Z,21.98
2018-06-30T05:37:27.142Z,22.12
2018-06-30T05:39:57.187Z,22.18
2018-06-30T05:42:27.138Z,22.38
2018-06-30T05:44:57.100Z,22.51
2018-06-30T05:47:27.054Z,22.50
2018-06-30T05:49:57.003Z,22.70
2018-06-30T05:52:26.757Z,22.74
2018-06-30T05:54:56.603Z,22.90
2018-06-30T05:57:26.533Z,22.99
2018-06-30T05:59:56.607Z,23.05
2018-06-30T06:02:26.630Z,23.02
2018-06-30T06:04:56.689Z,23.28
2018-06-30T06:07:26.673Z,23.18
2018-06-30T06:09:56.694Z,23.04
2018-06-30T06:12:26.491Z,23.03
2018-06-30T06:14:56.367Z,23.13
2018-06-30T06:17:26.318Z,23.26
2018-06-30T06:19:56.253Z,23.42
2018-06-30T06:22:26.145Z,23.63
2018-06-30T06:24:55.991Z,23.55
2018-06-30T06:27:26.200Z,23.51
2018-06-30T06:29:56.153Z,23.62
2018-06-30T06:32:26.097Z,23.72
2018-06-30T06:34:55.846Z,23.92
2018-06-30T06:37:25.865Z,24.01
2018-06-30T06:39:55.987Z,23.86
2018-06-30T06:42:25.965Z,23.95
2018-06-30T06:44:55.990Z,23.95
2018-06-30T06:47:25.978Z,23.95
2018-06-30T06:49:55.974Z,24.00
2018-06-30T06:52:25.940Z,23.90
2018-06-30T06:54:55.738Z,23.86
2018-06-30T06:57:25.778Z,23.88
2018-06-30T06:59:55.752Z,23.75
2018-06-30T07:02:25.772Z,23.68
2018-06-30T07:04:55.744Z,23.62
2018-06-30T07:07:25.816Z,23.72
2018-06-30T07:09:55.804Z,23.76
2018-06-30T07:12:25.641Z,23.72
2018-06-30T07:14:55.480Z,23.60
2018-06-30T07:17:25.278Z,23.59
2018-06-30T07:19:55.219Z,23.61
2018-06-30T07:22:25.175Z,23.76
2018-06-30T07:24:55.031Z,23.76
2018-06-30T07:27:24.957Z,23.65
2018-06-30T07:29:54.886Z,23.77
2018-06-30T07:32:24.740Z,23.96
2018-06-30T07:34:54.566Z,24.18
2018-06-30T07:37:24.541Z,24.36
2018-06-30T07:39:54.477Z,24.45
2018-06-30T07:42:24.278Z,24.32
2018-06-30T07:44:54.625Z,24.35
2018-06-30T07:47:24.563Z,24.36
2018-06-30T07:49:54.680Z,24.19
2018-06-30T07:52:24.472Z,23.95
2018-06-30T07:54:54.538Z,23.91
2018-06-30T07:57:24.542Z,23.94
2018-06-30T07:59:54.516Z,23.84
2018-06-30T08:02:24.557Z,23.68
2018-06-30T08:04:54.610Z,23.50
2018-06-30T08:07:24.616Z,23.42
2018-06-30T08:09:54.670Z,23.48
2018-06-30T08:12:24.651Z,23.40
2018-06-30T08:14:54.436Z,23.43
2018-06-30T08:17:24.460Z,23.51
2018-06-30T08:19:54.391Z,23.55
2018-06-30T08:22:24.395Z,23.62
2018-06-30T08:24:54.551Z,23.81
2018-06-30T08:27:24.967Z,23.94
2018-06-30T08:29:54.986Z,23.99
2018-06-30T08:32:24.845Z,24.14
2018-06-30T08:34:54.661Z,24.24
2018-06-30T08:37:24.588Z,24.34
2018-06-30T08:39:54.795Z,24.23
2018-06-30T08:42:24.508Z,24.49
2018-06-30T08:44:54.504Z,24.67
2018-06-30T08:47:24.475Z,24.73
2018-06-30T08:49:54.467Z,24.79
2018-06-30T08:52:24.353Z,25.00
2018-06-30T08:54:54.394Z,24.85
2018-06-30T08:57:24.416Z,24.63
2018-06-30T08:59:54.408Z,24.36
2018-06-30T09:02:24.396Z,24.21
2018-06-30T09:04:54.448Z,24.09
2018-06-30T09:07:24.425Z,24.08
2018-06-30T09:09:54.421Z,23.88
2018-06-30T09:12:24.334Z,23.84
2018-06-30T09:14:54.149Z,23.82
2018-06-30T09:17:24.143Z,23.95
2018-06-30T09:19:54.257Z,24.13
2018-06-30T09:22:24.296Z,24.09
2018-06-30T09:24:54.468Z,23.97
2018-06-30T09:27:24.551Z,23.78
2018-06-30T09:29:54.633Z,23.74
2018-06-30T09:32:24.488Z,23.77
2018-06-30T09:34:54.328Z,23.86
2018-06-30T09:37:24.268Z,23.85
2018-06-30T09:39:54.298Z,23.57
2018-06-30T09:42:24.056Z,23.52
2018-06-30T09:44:54.120Z,23.72
2018-06-30T09:47:24.084Z,23.98
2018-06-30T09:49:54.130Z,24.44
2018-06-30T09:52:23.955Z,24.52
2018-06-30T09:54:53.847Z,24.71
2018-06-30T09:57:23.798Z,24.66
2018-06-30T09:59:53.832Z,25.20
2018-06-30T10:02:24.107Z,25.60
2018-06-30T10:04:54.160Z,25.76
2018-06-30T10:07:24.019Z,25.67
2018-06-30T10:09:54.055Z,25.48
2018-06-30T10:12:23.833Z,25.72
2018-06-30T10:14:53.777Z,26.13
2018-06-30T10:17:23.913Z,26.33
2018-06-30T10:19:53.781Z,26.52
2018-06-30T10:22:23.760Z,26.86
2018-06-30T10:24:53.706Z,27.51
2018-06-30T10:27:23.665Z,27.19
2018-06-30T10:29:53.775Z,26.46
2018-06-30T10:32:23.821Z,26.32
2018-06-30T10:34:53.626Z,26.80
2018-06-30T10:37:23.629Z,26.74
2018-06-30T10:39:53.835Z,26.51
2018-06-30T10:42:23.600Z,26.32
2018-06-30T10:44:53.533Z,26.00
2018-06-30T10:47:23.567Z,26.05
2018-06-30T10:49:53.532Z,26.01
2018-06-30T10:52:23.304Z,26.17
2018-06-30T10:54:53.145Z,26.45
2018-06-30T10:57:23.021Z,26.64
2018-06-30T10:59:52.937Z,26.87
2018-06-30T11:02:22.979Z,26.64
2018-06-30T11:04:52.912Z,26.64
2018-06-30T11:07:22.832Z,26.95
2018-06-30T11:09:52.742Z,27.00
2018-06-30T11:12:22.623Z,27.18
2018-06-30T11:14:52.410Z,27.20
2018-06-30T11:17:22.358Z,27.52
2018-06-30T11:19:52.710Z,27.60
2018-06-30T11:22:22.788Z,27.60
2018-06-30T11:24:52.724Z,27.50
2018-06-30T11:27:22.957Z,27.63
2018-06-30T11:29:53.024Z,27.89
2018-06-30T11:32:23.499Z,28.10
2018-06-30T11:34:53.388Z,27.64
2018-06-30T11:37:23.488Z,27.60
2018-06-30T11:39:53.533Z,28.25
2018-06-30T11:42:23.412Z,27.51
2018-06-30T11:44:53.484Z,27.27
2018-06-30T11:47:23.476Z,27.10
2018-06-30T11:49:53.377Z,27.16
2018-06-30T11:52:23.320Z,27.08
2018-06-30T11:54:53.130Z,27.22
2018-06-30T11:57:23.142Z,27.31
2018-06-30T11:59:53.168Z,27.34
2018-06-30T12:02:23.481Z,27.15
2018-06-30T12:04:53.575Z,27.17
2018-06-30T12:07:24.297Z,27.06
2018-06-30T12:09:54.305Z,26.88
2018-06-30T12:12:24.177Z,26.83
2018-06-30T12:14:53.954Z,26.79
2018-06-30T12:17:23.951Z,26.94
2018-06-30T12:19:53.877Z,26.96
2018-06-30T12:22:24.224Z,26.99
2018-06-30T12:24:54.212Z,27.09
2018-06-30T12:27:24.213Z,27.25
2018-06-30T12:29:54.170Z,27.35
2018-06-30T12:32:24.137Z,27.35
2018-06-30T12:34:53.945Z,27.35
2018-06-30T12:37:23.996Z,27.32
2018-06-30T12:39:53.989Z,27.35
2018-06-30T12:42:23.867Z,27.38
2018-06-30T12:44:53.950Z,27.69
2018-06-30T12:47:24.041Z,27.68
2018-06-30T12:49:54.472Z,27.67
2018-06-30T12:52:24.375Z,27.73
2018-06-30T12:54:54.323Z,27.83
2018-06-30T12:57:24.381Z,28.20
2018-06-30T12:59:54.374Z,28.44
2018-06-30T13:02:24.309Z,28.50
2018-06-30T13:04:54.608Z,28.48
2018-06-30T13:07:24.717Z,28.06
2018-06-30T13:09:54.662Z,28.04
2018-06-30T13:12:24.479Z,28.11
2018-06-30T13:14:54.357Z,28.45
2018-06-30T13:17:24.284Z,28.46
2018-06-30T13:19:55.950Z,28.30
2018-06-30T13:22:26.261Z,28.49
2018-06-30T13:24:56.176Z,28.08
2018-06-30T13:27:26.136Z,27.90
2018-06-30T13:29:56.199Z,27.87
2018-06-30T13:32:26.519Z,27.95
2018-06-30T13:34:56.372Z,28.11
2018-06-30T13:37:26.320Z,28.09
2018-06-30T13:39:56.364Z,28.12
2018-06-30T13:42:26.286Z,28.13
2018-06-30T13:44:56.273Z,28.61
2018-06-30T13:47:26.291Z,28.75
2018-06-30T13:49:56.293Z,28.98
2018-06-30T13:52:26.056Z,28.75
2018-06-30T13:54:55.989Z,29.05
2018-06-30T13:57:26.039Z,29.55
2018-06-30T13:59:56.162Z,29.91
2018-06-30T14:02:26.057Z,30.02
2018-06-30T14:04:56.328Z,29.60
2018-06-30T14:07:26.399Z,29.47
2018-06-30T14:09:56.410Z,29.34
2018-06-30T14:12:26.454Z,29.35
2018-06-30T14:14:56.367Z,29.23
2018-06-30T14:17:26.608Z,29.12
2018-06-30T14:19:56.659Z,29.14
2018-06-30T14:22:26.871Z,29.08
2018-06-30T14:24:57.140Z,29.24
2018-06-30T14:27:27.132Z,29.07
2018-06-30T14:29:57.042Z,29.33
2018-06-30T14:32:26.963Z,29.42
2018-06-30T14:34:56.938Z,29.25
2018-06-30T14:37:26.829Z,29.45
2018-06-30T14:39:56.797Z,29.84
2018-06-30T14:42:26.897Z,29.51
2018-06-30T14:44:57.616Z,29.22
2018-06-30T14:47:27.416Z,29.22
2018-06-30T14:49:57.324Z,29.41
2018-06-30T14:52:27.167Z,29.71
2018-06-30T14:54:57.016Z,29.82
2018-06-30T14:57:26.879Z,29.73
2018-06-30T14:59:56.796Z,29.57
2018-06-30T15:02:26.773Z,29.56
2018-06-30T15:04:56.716Z,29.70
2018-06-30T15:07:26.623Z,30.10
2018-06-30T15:09:56.773Z,29.82
2018-06-30T15:12:26.594Z,29.62
2018-06-30T15:14:56.536Z,29.77
2018-06-30T15:17:26.567Z,30.05
2018-06-30T15:19:56.616Z,29.86
2018-06-30T15:22:26.610Z,29.98
2018-06-30T15:24:56.675Z,30.28
2018-06-30T15:27:26.648Z,30.40
2018-06-30T15:29:56.658Z,30.13
2018-06-30T15:32:26.435Z,30.01
2018-06-30T15:34:56.291Z,29.84
2018-06-30T15:37:26.235Z,29.80
2018-06-30T15:39:56.135Z,29.75
2018-06-30T15:42:26.275Z,29.99
2018-06-30T15:44:56.245Z,29.94
2018-06-30T15:47:26.140Z,29.61
2018-06-30T15:49:55.981Z,29.57
2018-06-30T15:52:25.846Z,29.64
2018-06-30T15:54:56.422Z,29.69
2018-06-30T15:57:26.365Z,29.62
2018-06-30T15:59:56.304Z,29.65
2018-06-30T16:02:26.374Z,29.81
2018-06-30T16:04:56.408Z,29.94
2018-06-30T16:07:26.506Z,30.01
2018-06-30T16:09:56.630Z,30.05
2018-06-30T16:12:26.531Z,29.89
2018-06-30T16:14:56.324Z,29.92
2018-06-30T16:17:26.479Z,29.93
2018-06-30T16:19:56.569Z,29.74
2018-06-30T16:22:26.692Z,29.65
2018-06-30T16:24:56.821Z,29.62
2018-06-30T16:27:26.761Z,29.62
2018-06-30T16:29:56.796Z,29.69
2018-06-30T16:32:26.751Z,29.84
2018-06-30T16:34:56.606Z,30.15
2018-06-30T16:37:26.648Z,30.32
2018-06-30T16:39:56.648Z,30.55
2018-06-30T16:42:26.706Z,30.61
2018-06-30T16:44:56.706Z,30.52
2018-06-30T16:47:26.862Z,30.35
2018-06-30T16:49:56.905Z,30.21
2018-06-30T16:52:26.710Z,30.04
2018-06-30T16:54:56.611Z,30.06
2018-06-30T16:57:26.669Z,29.85
2018-06-30T16:59:56.673Z,29.63
2018-06-30T17:02:26.716Z,29.52
2018-06-30T17:04:56.703Z,29.52
2018-06-30T17:07:26.774Z,29.60
2018-06-30T17:09:56.947Z,29.48
2018-06-30T17:12:26.747Z,29.22
2018-06-30T17:14:56.601Z,28.83
2018-06-30T17:17:26.698Z,28.55
2018-06-30T17:19:56.655Z,28.15
2018-06-30T17:22:26.732Z,28.14
2018-06-30T17:24:56.684Z,28.09
2018-06-30T17:27:26.773Z,28.02
2018-06-30T17:29:56.704Z,27.96
2018-06-30T17:32:26.589Z,27.88
2018-06-30T17:34:56.560Z,27.77
2018-06-30T17:37:26.730Z,27.71
2018-06-30T17:39:56.888Z,27.59
2018-06-30T17:42:26.976Z,27.48
2018-06-30T17:44:56.915Z,27.17
2018-06-30T17:47:26.857Z,26.98
2018-06-30T17:49:56.865Z,26.85
2018-06-30T17:52:26.758Z,26.73
2018-06-30T17:54:56.734Z,26.66
2018-06-30T17:57:26.766Z,26.50
2018-06-30T17:59:56.743Z,26.46
2018-06-30T18:02:26.675Z,26.39
2018-06-30T18:04:56.577Z,26.34
2018-06-30T18:07:26.534Z,26.22
2018-06-30T18:09:56.468Z,26.17
2018-06-30T18:12:26.391Z,26.10
2018-06-30T18:14:56.199Z,26.05
2018-06-30T18:17:26.155Z,25.91
2018-06-30T18:19:56.238Z,25.92
2018-06-30T18:22:26.282Z,25.81
2018-06-30T18:24:56.194Z,25.63
2018-06-30T18:27:26.193Z,25.56
2018-06-30T18:29:56.131Z,25.32
2018-06-30T18:32:25.989Z,25.23
2018-06-30T18:34:55.825Z,25.16
2018-06-30T18:37:25.834Z,25.04
2018-06-30T18:39:55.769Z,25.12
2018-06-30T18:42:31.383Z,25.05
2018-06-30T18:45:12.797Z,24.82
2018-06-30T18:47:42.860Z,24.49
2018-06-30T18:50:12.905Z,24.22
2018-06-30T18:52:42.736Z,24.08
2018-06-30T18:55:12.568Z,24.15
2018-06-30T18:57:42.449Z,24.01
2018-06-30T19:00:12.467Z,23.82
2018-06-30T19:02:42.467Z,23.63
2018-06-30T19:05:12.541Z,23.55
2018-06-30T19:07:42.570Z,23.51
2018-06-30T19:10:12.574Z,23.42
2018-06-30T19:12:42.703Z,23.30
2018-06-30T19:15:12.640Z,23.31
2018-06-30T19:17:42.634Z,23.21
2018-06-30T19:20:12.678Z,23.24
2018-06-30T19:22:42.642Z,23.22
2018-06-30T19:25:12.574Z,23.31
2018-06-30T19:27:42.459Z,23.20
2018-06-30T19:30:12.746Z,23.09
2018-06-30T19:32:42.600Z,22.99
2018-06-30T19:35:12.420Z,23.01
2018-06-30T19:37:42.456Z,23.04
2018-06-30T19:40:12.534Z,22.91
2018-06-30T19:42:42.581Z,22.84
2018-06-30T19:45:12.497Z,22.78
2018-06-30T19:47:42.703Z,22.72
2018-06-30T19:50:12.804Z,22.68
2018-06-30T19:52:42.732Z,22.71
2018-06-30T19:55:12.735Z,22.82
2018-06-30T19:57:42.804Z,22.80
2018-06-30T20:00:12.777Z,22.74
2018-06-30T20:02:42.885Z,22.77
2018-06-30T20:05:12.912Z,22.95
2018-06-30T20:07:47.898Z,23.08
2018-06-30T20:10:17.911Z,23.16
2018-06-30T20:12:47.919Z,23.08
2018-06-30T20:15:17.763Z,23.05
2018-06-30T20:17:47.796Z,22.99
2018-06-30T20:20:17.832Z,22.94
2018-06-30T20:22:47.786Z,22.91
2018-06-30T20:25:17.814Z,22.67
2018-06-30T20:27:47.881Z,22.45
2018-06-30T20:30:17.872Z,22.26
2018-06-30T20:32:47.831Z,22.14
2018-06-30T20:35:17.656Z,22.11
2018-06-30T20:37:47.533Z,22.09
2018-06-30T20:40:17.543Z,22.13
2018-06-30T20:42:47.583Z,22.07
2018-06-30T20:45:17.477Z,22.07
2018-06-30T20:47:47.620Z,22.04
2018-06-30T20:50:17.504Z,21.98
2018-06-30T20:52:47.448Z,21.87
2018-06-30T20:55:17.301Z,21.91
2018-06-30T20:57:47.245Z,21.91
2018-06-30T21:00:17.182Z,21.82
2018-06-30T21:02:47.162Z,21.90
2018-06-30T21:05:17.160Z,21.88
2018-06-30T21:07:47.160Z,22.02
2018-06-30T21:10:17.096Z,21.98
2018-06-30T21:12:46.986Z,21.98
2018-06-30T21:15:16.755Z,22.03
2018-06-30T21:17:46.803Z,22.07
2018-06-30T21:20:16.798Z,22.08
2018-06-30T21:22:46.826Z,21.98
2018-06-30T21:25:16.903Z,22.01
2018-06-30T21:27:46.929Z,22.07
2018-06-30T21:30:17.077Z,22.01
2018-06-30T21:32:46.910Z,22.05
2018-06-30T21:35:16.855Z,22.12
2018-06-30T21:37:46.855Z,22.12
2018-06-30T21:40:16.834Z,22.21
2018-06-30T21:42:46.736Z,22.27
2018-06-30T21:45:16.541Z,22.33
2018-06-30T21:47:52.318Z,22.44
2018-06-30T21:50:34.016Z,22.46
2018-06-30T21:53:07.264Z,22.42
2018-06-30T21:55:37.116Z,22.33
2018-06-30T21:58:08.212Z,22.33
2018-06-30T22:00:51.014Z,22.25
2018-06-30T22:03:24.065Z,22.16
2018-06-30T22:05:56.143Z,22.18
2018-06-30T22:08:27.230Z,22.14
2018-06-30T22:10:58.136Z,22.07
2018-06-30T22:13:29.102Z,22.12
2018-06-30T22:16:00.256Z,22.14
2018-06-30T22:18:31.122Z,22.07
2018-06-30T22:21:01.625Z,22.02
2018-06-30T22:23:32.644Z,22.05
2018-06-30T22:26:03.463Z,22.04
2018-06-30T22:28:34.337Z,21.95
2018-06-30T22:31:05.356Z,21.88
2018-06-30T22:33:36.321Z,21.82
2018-06-30T22:36:07.422Z,21.82
2018-06-30T22:38:38.324Z,21.85
2018-06-30T22:41:09.133Z,21.79
2018-06-30T22:43:39.832Z,21.63
2018-06-30T22:46:10.686Z,21.61
2018-06-30T22:48:41.587Z,21.52
2018-06-30T22:51:12.374Z,21.41
2018-06-30T22:53:43.447Z,21.35
2018-06-30T22:56:14.335Z,21.25
2018-06-30T22:58:45.385Z,21.41
2018-06-30T23:01:16.206Z,21.37
2018-06-30T23:03:46.674Z,21.33
2018-06-30T23:06:17.518Z,21.42
2018-06-30T23:08:55.268Z,21.43
2018-06-30T23:11:26.045Z,21.41
2018-06-30T23:13:57.112Z,21.37
2018-06-30T23:16:28.531Z,21.38
2018-06-30T23:18:59.243Z,21.46
2018-06-30T23:21:30.123Z,21.46
2018-06-30T23:24:00.859Z,21.43
2018-06-30T23:26:31.655Z,21.42
2018-06-30T23:29:02.813Z,21.49
2018-06-30T23:31:33.938Z,21.49
2018-06-30T23:34:04.829Z,21.47
2018-06-30T23:36:35.911Z,21.51
2018-06-30T23:39:09.290Z,21.51
2018-06-30T23:41:40.572Z,21.53
2018-06-30T23:44:11.520Z,21.65
2018-06-30T23:46:42.244Z,21.70
2018-06-30T23:49:12.616Z,21.56
2018-06-30T23:51:43.384Z,21.46
2018-06-30T23:54:13.861Z,21.50
2018-06-30T23:56:44.898Z,21.51
2018-06-30T23:59:15.750Z,21.66
